Time;durP1;ratioP1;P1;durP2;ratioP2;P2;SDS_P1;SDS_P2;PMS_P1;PMS_P2;Temp;Humidity;BMP_temperature;BMP_pressure;BME280_temperature;BME280_humidity;BME280_pressure;Samples;Min_cycle;Max_cycle;Signal;HPM_P1;HPM_P2
2022/04/29 00:01:06;;;;;;;15.30;7.93;;;2.30;99.90;1.20;101435;;;;586329;237;24075;-79
2022/04/29 00:03:34;;;;;;;13.93;7.67;;;2.30;99.90;1.20;101440;;;;586055;241;24087;-78
2022/04/29 00:06:03;;;;;;;11.03;7.80;;;2.30;99.90;1.20;101439;;;;586024;241;24063;-82
2022/04/29 00:08:32;;;;;;;11.87;7.50;;;2.30;99.90;1.20;101432;;;;586023;241;24034;-79
2022/04/29 00:11:00;;;;;;;9.90;7.13;;;2.30;99.90;1.20;101434;;;;585866;241;24038;-77
2022/04/29 00:13:27;;;;;;;10.60;7.97;;;2.30;99.90;1.20;101437;;;;586696;241;24052;-76
2022/04/29 00:15:56;;;;;;;11.40;6.33;;;2.30;99.90;1.20;101429;;;;585867;241;24106;-78
2022/04/29 00:18:26;;;;;;;12.00;6.67;;;2.30;99.90;1.20;101425;;;;586561;241;24128;-78
2022/04/29 00:20:54;;;;;;;9.00;5.53;;;2.20;99.90;1.20;101435;;;;586364;241;24069;-78
2022/04/29 00:23:22;;;;;;;8.77;6.03;;;2.30;99.90;1.20;101426;;;;585413;241;24132;-77
2022/04/29 00:25:49;;;;;;;8.23;5.87;;;2.30;99.90;1.20;101430;;;;586075;239;24053;-76
2022/04/29 00:28:17;;;;;;;9.07;5.63;;;2.30;99.90;1.20;101416;;;;587601;240;24053;-76
2022/04/29 00:30:45;;;;;;;6.90;5.00;;;2.30;99.90;1.20;101418;;;;586329;240;24098;-77
2022/04/29 00:33:13;;;;;;;5.93;4.60;;;2.20;99.90;1.20;101409;;;;586295;240;24075;-78
2022/04/29 00:35:41;;;;;;;5.30;4.23;;;2.30;99.90;1.20;101420;;;;586963;240;24103;-76
2022/04/29 00:38:15;;;;;;;6.30;3.85;;;2.30;99.90;1.20;101420;;;;590971;238;35145;-77
2022/04/29 00:40:38;;;;;;;5.07;3.23;;;2.20;99.90;1.20;101418;;;;585741;240;25114;-78
2022/04/29 00:43:05;;;;;;;3.97;2.83;;;2.30;99.90;1.20;101424;;;;585914;240;24089;-77
2022/04/29 00:45:33;;;;;;;4.03;2.83;;;2.30;99.90;1.30;101417;;;;585753;240;24071;-77
2022/04/29 00:48:05;;;;;;;4.03;2.90;;;2.30;99.90;1.30;101416;;;;585650;240;24056;-76
2022/04/29 00:50:33;;;;;;;9.63;3.67;;;2.30;99.90;1.30;101419;;;;585419;240;24046;-76
2022/04/29 00:53:01;;;;;;;5.63;3.23;;;2.30;99.90;1.30;101424;;;;586297;240;24097;-78
2022/04/29 00:55:26;;;;;;;3.83;2.80;;;2.40;99.90;1.30;101412;;;;585772;240;24083;-81
2022/04/29 00:58:08;;;;;;;5.27;3.03;;;2.40;99.90;1.40;101412;;;;586618;240;24138;-78
2022/04/29 01:00:39;;;;;;;4.13;2.80;;;2.40;99.90;1.40;101402;;;;583898;240;24107;-77
2022/04/29 01:03:04;;;;;;;5.57;2.93;;;2.50;99.90;1.50;101409;;;;586237;241;24122;-77
2022/04/29 01:05:33;;;;;;;5.23;3.07;;;2.50;99.90;1.50;101397;;;;595304;241;24064;-77
2022/04/29 01:08:00;;;;;;;6.53;3.17;;;2.50;99.90;1.50;101393;;;;586622;241;24052;-76
2022/04/29 01:10:28;;;;;;;5.97;3.80;;;2.60;99.90;1.50;101405;;;;586336;241;24057;-77
2022/04/29 01:12:56;;;;;;;9.50;3.30;;;2.60;99.90;1.50;101394;;;;585605;241;24101;-77
2022/04/29 01:15:28;;;;;;;8.03;3.53;;;2.60;99.90;1.50;101403;;;;585411;241;24086;-76
2022/04/29 01:17:58;;;;;;;8.80;3.10;;;2.60;99.90;1.40;101404;;;;586216;241;24072;-79
2022/04/29 01:20:29;;;;;;;4.43;3.47;;;2.50;99.90;1.40;101402;;;;585121;241;24092;-77
2022/04/29 01:22:57;;;;;;;9.20;3.10;;;2.50;99.90;1.40;101398;;;;585707;241;24099;-76
2022/04/29 01:25:25;;;;;;;11.70;3.97;;;2.40;99.90;1.40;101398;;;;586644;241;24060;-77
2022/04/29 01:27:54;;;;;;;12.00;3.90;;;2.40;99.90;1.40;101391;;;;585729;241;24047;-77
2022/04/29 01:30:26;;;;;;;4.10;3.17;;;2.40;99.90;1.40;101394;;;;585673;241;24069;-76
2022/04/29 01:32:50;;;;;;;6.53;3.50;;;2.40;99.90;1.30;101393;;;;585372;241;24101;-76
2022/04/29 01:35:18;;;;;;;7.77;3.33;;;2.40;99.90;1.40;101387;;;;591584;241;24066;-75
2022/04/29 01:37:46;;;;;;;2.93;2.37;;;2.40;99.90;1.40;101389;;;;586236;240;24079;-78
2022/04/29 01:40:17;;;;;;;5.97;3.10;;;2.40;99.90;1.40;101382;;;;593119;238;24131;-83
2022/04/29 01:42:41;;;;;;;8.07;3.33;;;2.40;99.90;1.40;101383;;;;587772;240;24083;-85
2022/04/29 01:45:12;;;;;;;6.30;3.40;;;2.40;99.90;1.40;101375;;;;587915;240;24160;-85
2022/04/29 01:47:37;;;;;;;3.97;2.60;;;2.40;99.90;1.40;101381;;;;587572;240;24111;-85
2022/04/29 01:50:05;;;;;;;4.83;2.90;;;2.40;99.90;1.50;101381;;;;587327;240;24067;-79
2022/04/29 01:52:33;;;;;;;6.53;2.80;;;2.50;99.90;1.50;101375;;;;596343;240;24056;-79
2022/04/29 01:55:01;;;;;;;2.30;2.13;;;2.50;99.90;1.50;101380;;;;596270;240;24105;-81
2022/04/29 01:57:29;;;;;;;3.70;2.50;;;2.50;99.90;1.50;101367;;;;585831;240;24052;-78
2022/04/29 01:59:57;;;;;;;3.20;2.40;;;2.60;99.90;1.60;101374;;;;586029;240;24147;-79
2022/04/29 02:02:25;;;;;;;3.57;1.80;;;2.60;99.90;1.60;101375;;;;585885;240;24050;-78
2022/04/29 02:04:53;;;;;;;3.87;2.43;;;2.70;99.90;1.70;101381;;;;586005;240;24051;-78
2022/04/29 02:07:25;;;;;;;3.83;2.20;;;2.70;99.90;1.80;101369;;;;585827;237;24073;-79
2022/04/29 02:09:49;;;;;;;4.87;2.33;;;2.80;99.90;1.90;101368;;;;595308;240;24065;-80
2022/04/29 02:12:17;;;;;;;4.97;1.90;;;2.90;99.90;1.90;101373;;;;585988;240;24103;-77
2022/04/29 02:14:45;;;;;;;1.87;1.77;;;2.90;99.90;1.90;101376;;;;586460;241;26329;-79
2022/04/29 02:17:14;;;;;;;3.23;2.20;;;3.00;99.90;2.10;101369;;;;586684;241;24070;-78
2022/04/29 02:19:42;;;;;;;5.57;2.10;;;3.10;99.90;2.10;101364;;;;595644;241;24054;-80
2022/04/29 02:22:10;;;;;;;6.77;2.13;;;3.10;99.90;2.20;101369;;;;585504;241;24067;-77
2022/04/29 02:24:39;;;;;;;2.97;2.17;;;3.20;99.90;2.20;101362;;;;586119;241;25092;-77
2022/04/29 02:27:07;;;;;;;4.17;2.00;;;3.20;99.90;2.20;101363;;;;596028;237;24396;-77
2022/04/29 02:29:35;;;;;;;2.77;1.90;;;3.20;99.90;2.20;101362;;;;585848;241;24075;-77
2022/04/29 02:32:05;;;;;;;3.00;2.07;;;3.20;99.90;2.20;101362;;;;596058;241;24056;-78
2022/04/29 02:34:30;;;;;;;5.57;2.20;;;3.20;99.90;2.20;101364;;;;591547;238;24083;-76
2022/04/29 02:36:58;;;;;;;2.40;1.97;;;3.20;99.90;2.30;101359;;;;595968;241;24109;-76
2022/04/29 02:39:26;;;;;;;3.37;1.97;;;3.20;99.90;2.40;101355;;;;585919;241;24063;-77
2022/04/29 02:41:55;;;;;;;2.17;1.97;;;3.30;99.90;2.50;101356;;;;585945;241;24134;-78
2022/04/29 02:44:22;;;;;;;2.67;1.77;;;3.40;99.90;2.60;101357;;;;595921;241;24042;-76
2022/04/29 02:47:08;;;;;;;3.57;1.97;;;3.50;99.90;2.60;101358;;;;585912;241;24060;-76
2022/04/29 02:49:39;;;;;;;4.23;2.00;;;3.60;99.90;2.70;101356;;;;586432;240;24125;-76
2022/04/29 02:52:07;;;;;;;2.70;1.80;;;3.60;99.90;2.70;101351;;;;587539;240;24059;-80
2022/04/29 02:54:39;;;;;;;3.00;2.10;;;3.70;99.90;2.80;101356;;;;587680;240;24063;-81
2022/04/29 02:57:04;;;;;;;1.83;1.70;;;3.70;99.90;2.80;101343;;;;587441;240;24055;-84
2022/04/29 02:59:34;;;;;;;3.30;1.60;;;3.80;99.90;2.80;101357;;;;587450;240;24056;-80
2022/04/29 03:01:59;;;;;;;4.40;1.87;;;3.80;99.90;2.90;101356;;;;587474;240;24061;-84
2022/04/29 03:04:28;;;;;;;2.03;1.80;;;3.90;99.90;2.90;101357;;;;586758;240;24076;-81
2022/04/29 03:06:57;;;;;;;2.90;2.07;;;3.90;99.90;3.00;101357;;;;586674;240;24054;-81
2022/04/29 03:09:25;;;;;;;4.03;1.50;;;3.90;99.90;3.00;101352;;;;586689;240;24174;-84
2022/04/29 03:11:54;;;;;;;2.33;2.00;;;3.90;99.90;3.00;101351;;;;586435;240;24051;-84
2022/04/29 03:14:22;;;;;;;2.70;1.47;;;3.90;99.90;3.10;101344;;;;587351;240;24120;-81
2022/04/29 03:16:53;;;;;;;3.73;2.27;;;4.00;99.90;3.10;101341;;;;596511;237;24059;-86
2022/04/29 03:19:17;;;;;;;2.10;1.87;;;4.00;99.90;3.10;101347;;;;585252;240;24071;-81
2022/04/29 03:21:49;;;;;;;4.67;1.57;;;4.00;99.90;3.10;101347;;;;585996;240;24075;-77
2022/04/29 03:24:13;;;;;;;2.87;1.90;;;4.10;99.90;3.10;101347;;;;586057;240;24127;-77
2022/04/29 03:26:42;;;;;;;2.77;2.03;;;4.10;99.90;3.20;101346;;;;585801;241;24079;-77
2022/04/29 03:29:10;;;;;;;6.87;2.87;;;4.10;99.90;3.20;101356;;;;585810;241;24085;-78
2022/04/29 03:31:38;;;;;;;3.30;2.53;;;4.20;99.90;3.20;101361;;;;585923;241;24066;-77
2022/04/29 03:34:06;;;;;;;3.83;2.37;;;4.10;99.90;3.30;101357;;;;595993;241;24070;-77
2022/04/29 03:36:34;;;;;;;5.67;2.87;;;4.20;99.90;3.30;101363;;;;585923;241;24038;-77
2022/04/29 03:39:02;;;;;;;3.77;2.80;;;4.20;99.90;3.30;101356;;;;586769;241;24126;-79
2022/04/29 03:41:30;;;;;;;4.10;3.10;;;4.20;99.90;3.40;101351;;;;585791;241;24093;-76
2022/04/29 03:43:58;;;;;;;6.50;3.33;;;4.30;99.90;3.40;101348;;;;585903;241;24039;-78
2022/04/29 03:46:26;;;;;;;4.03;3.00;;;4.30;99.90;3.50;101355;;;;585911;241;24062;-76
2022/04/29 03:51:39;;;;;;;4.57;3.50;;;4.40;99.90;3.60;101350;;;;591443;241;24092;-77
2022/04/29 03:54:07;;;;;;;7.10;4.13;;;4.50;99.90;3.60;101350;;;;585654;241;24064;-76
2022/04/29 03:56:35;;;;;;;3.93;3.47;;;4.60;99.90;3.70;101355;;;;585740;241;24047;-80
2022/04/29 03:59:03;;;;;;;6.63;3.60;;;4.60;99.90;3.80;101346;;;;586290;241;24057;-81
2022/04/29 04:01:32;;;;;;;7.30;3.63;;;4.70;99.90;3.90;101360;;;;586632;240;24059;-79
2022/04/29 04:04:03;;;;;;;8.70;4.17;;;4.90;99.90;4.00;101357;;;;586704;240;24096;-78
2022/04/29 04:09:14;;;;;;;5.17;4.33;;;5.00;99.90;4.20;101358;;;;592264;240;24071;-79
2022/04/29 04:11:42;;;;;;;8.77;4.13;;;5.10;99.90;4.40;101363;;;;591882;240;24053;-79
2022/04/29 04:14:10;;;;;;;11.30;3.90;;;5.20;99.90;4.50;101369;;;;585993;240;24075;-77
2022/04/29 04:16:38;;;;;;;6.20;3.60;;;5.30;99.90;4.70;101361;;;;587020;240;24060;-77
2022/04/29 04:19:05;;;;;;;7.07;4.43;;;5.50;99.90;5.50;101372;;;;596031;237;24057;-78
2022/04/29 04:21:33;;;;;;;9.37;4.60;;;6.30;99.90;6.90;101382;;;;585906;240;25150;-79
2022/04/29 04:24:01;;;;;;;12.00;4.40;;;7.60;99.90;8.40;101377;;;;586116;240;24071;-79
2022/04/29 04:26:29;;;;;;;7.40;4.83;;;9.00;99.90;9.80;101379;;;;586623;240;24060;-80
2022/04/29 04:29:01;;;;;;;11.70;4.70;;;11.90;99.90;11.20;101389;;;;587180;240;24076;-78
2022/04/29 04:31:29;;;;;;;9.73;5.03;;;11.80;99.90;12.30;101384;;;;587253;240;24164;-80
2022/04/29 04:33:54;;;;;;;7.13;5.03;;;13.10;99.90;13.30;101382;;;;587318;240;24084;-76
2022/04/29 04:36:23;;;;;;;10.17;5.70;;;14.10;99.90;14.10;101383;;;;588033;240;24065;-77
2022/04/29 04:38:51;;;;;;;6.73;4.93;;;15.00;97.30;14.80;101383;;;;586995;241;24044;-78
2022/04/29 04:41:20;;;;;;;9.13;4.70;;;16.70;88.70;15.80;101395;;;;586319;241;24060;-79
2022/04/29 04:43:49;;;;;;;8.50;5.40;;;16.70;89.30;16.60;101400;;;;586259;241;24072;-78
2022/04/29 04:46:16;;;;;;;8.77;5.73;;;17.50;80.50;17.10;101390;;;;586190;241;24070;-79
2022/04/29 04:48:43;;;;;;;10.67;5.70;;;18.20;76.20;17.90;101404;;;;586224;241;24047;-78
2022/04/29 04:51:11;;;;;;;9.50;5.20;;;18.90;70.80;18.60;101401;;;;586158;241;24069;-78
2022/04/29 04:53:40;;;;;;;9.20;5.80;;;19.50;66.80;19.00;101398;;;;585879;241;24059;-77
2022/04/29 04:56:08;;;;;;;6.37;5.60;;;20.00;63.50;19.70;101394;;;;586043;241;24056;-78
2022/04/29 04:58:36;;;;;;;6.53;5.70;;;20.70;60.80;20.30;101403;;;;586140;241;24050;-77
2022/04/29 05:01:04;;;;;;;8.10;6.10;;;21.20;58.60;20.70;101401;;;;585962;241;23078;-77
2022/04/29 05:03:36;;;;;;;7.77;6.27;;;21.70;57.60;21.40;101399;;;;585977;241;24100;-77
2022/04/29 05:06:01;;;;;;;10.77;6.07;;;22.30;55.60;21.60;101402;;;;585978;241;24066;-77
2022/04/29 05:08:29;;;;;;;8.87;6.47;;;22.70;55.40;22.00;101412;;;;585663;241;24060;-77
2022/04/29 05:10:57;;;;;;;10.43;6.03;;;23.10;54.10;22.70;101415;;;;585769;241;24035;-77
2022/04/29 05:13:25;;;;;;;8.23;5.97;;;23.50;52.70;23.20;101412;;;;586811;240;24050;-77
2022/04/29 05:15:54;;;;;;;7.63;6.20;;;24.10;51.40;23.20;101419;;;;588355;240;24050;-80
2022/04/29 05:18:22;;;;;;;7.50;5.40;;;24.30;50.70;23.60;101426;;;;587664;240;24084;-78
2022/04/29 05:20:50;;;;;;;9.93;5.87;;;24.50;50.50;24.10;101419;;;;587686;240;24043;-83
2022/04/29 05:23:18;;;;;;;10.50;6.40;;;25.00;50.10;24.80;101428;;;;586888;240;23050;-77
2022/04/29 05:25:46;;;;;;;13.17;6.20;;;25.50;48.70;24.90;101425;;;;586696;240;23138;-79
2022/04/29 05:28:13;;;;;;;9.13;6.40;;;25.80;47.60;25.00;101434;;;;586782;240;24089;-78
2022/04/29 05:30:41;;;;;;;8.57;5.93;;;25.90;47.10;25.30;101436;;;;586463;240;23075;-77
2022/04/29 05:33:13;;;;;;;12.70;6.70;;;26.10;46.70;25.40;101435;;;;586495;240;23066;-78
2022/04/29 05:35:41;;;;;;;7.87;6.70;;;26.60;45.90;25.80;101437;;;;585819;240;23067;-78
2022/04/29 05:38:09;;;;;;;8.90;6.77;;;27.00;45.10;26.30;101444;;;;586237;240;24095;-78
2022/04/29 05:43:20;;;;;;;11.67;6.53;;;27.30;44.40;26.80;101449;;;;587123;240;23063;-81
2022/04/29 05:45:48;;;;;;;14.33;7.23;;;27.50;44.10;27.20;101444;;;;586157;240;24085;-78
2022/04/29 05:48:16;;;;;;;8.80;6.60;;;27.90;43.60;27.30;101452;;;;585970;241;24068;-79
2022/04/29 05:50:45;;;;;;;10.63;6.73;;;28.00;43.30;27.50;101441;;;;585797;241;23112;-82
2022/04/29 05:53:15;;;;;;;8.73;6.93;;;28.20;43.40;28.10;101450;;;;585991;237;24080;-82
2022/04/29 05:55:40;;;;;;;9.40;7.80;;;28.70;42.90;28.80;101456;;;;587486;241;23074;-79
2022/04/29 05:58:10;;;;;;;10.55;7.37;;;29.70;41.50;29.10;101462;;;;587441;241;23067;-80
2022/04/29 06:00:39;;;;;;;9.32;6.75;;;29.70;41.50;30.10;101459;;;;586866;241;23071;-79
2022/04/29 06:03:07;;;;;;;10.15;6.65;;;30.50;40.50;30.60;101465;;;;586995;241;23077;-79
2022/04/29 06:05:35;;;;;;;11.23;6.93;;;31.20;39.70;30.80;101467;;;;587092;241;23094;-81
2022/04/29 06:08:03;;;;;;;7.75;6.93;;;31.40;39.40;30.90;101483;;;;587293;241;23133;-80
2022/04/29 06:10:31;;;;;;;11.23;7.87;;;31.70;39.00;30.80;101479;;;;587228;241;23097;-80
2022/04/29 06:12:58;;;;;;;8.52;7.50;;;31.60;39.20;30.90;101478;;;;587361;241;23065;-80
2022/04/29 06:15:28;;;;;;;10.00;7.93;;;31.60;38.70;31.10;101477;;;;587296;241;23069;-80
2022/04/29 06:17:57;;;;;;;7.87;6.97;;;31.80;38.70;31.20;101483;;;;587799;241;23124;-79
2022/04/29 06:20:26;;;;;;;9.98;6.60;;;31.90;38.50;31.40;101485;;;;587325;241;23113;-79
2022/04/29 06:22:55;;;;;;;11.77;7.60;;;32.10;38.50;32.20;101493;;;;587315;241;23205;-81
2022/04/29 06:25:23;;;;;;;10.73;8.45;;;32.60;37.80;32.50;101497;;;;583795;240;35209;-80
2022/04/29 06:27:51;;;;;;;11.27;7.40;;;33.00;37.10;32.00;101501;;;;588843;240;24075;-80
2022/04/29 06:30:19;;;;;;;10.57;7.53;;;32.90;37.30;32.60;101504;;;;588738;240;23067;-80
2022/04/29 06:32:48;;;;;;;10.63;7.32;;;33.20;37.10;33.20;101500;;;;588011;240;24096;-80
2022/04/29 06:35:19;;;;;;;9.48;7.80;;;33.60;36.80;33.80;101500;;;;588379;236;23089;-79
2022/04/29 06:37:47;;;;;;;8.70;7.45;;;34.20;36.00;33.80;101508;;;;587893;240;23120;-81
2022/04/29 06:40:18;;;;;;;8.98;7.40;;;34.30;35.50;33.50;101513;;;;586003;240;23119;-81
2022/04/29 06:42:49;;;;;;;9.43;7.28;;;34.10;35.70;34.10;101513;;;;586929;240;23076;-78
2022/04/29 06:45:20;;;;;;;8.13;6.90;;;34.50;35.80;34.80;101517;;;;587366;240;23088;-80
2022/04/29 06:47:46;;;;;;;10.73;5.57;;;35.10;35.40;35.20;101518;;;;587424;240;23093;-78
2022/04/29 06:50:16;;;;;;;9.32;5.53;;;35.60;34.30;35.00;101529;;;;587547;240;23089;-84
2022/04/29 06:52:43;;;;;;;7.32;6.03;;;35.80;33.90;35.50;101523;;;;587891;240;23074;-81
2022/04/29 06:55:11;;;;;;;6.95;6.07;;;35.80;33.90;35.60;101533;;;;587244;240;23084;-78
2022/04/29 06:57:39;;;;;;;7.62;6.43;;;36.00;33.40;35.70;101531;;;;587006;240;23090;-79
2022/04/29 07:00:10;;;;;;;9.45;5.62;;;36.10;33.50;36.00;101532;;;;587167;241;23079;-79
2022/04/29 07:02:37;;;;;;;11.40;5.45;;;36.40;33.60;36.40;101535;;;;586869;241;23190;-78
2022/04/29 07:05:09;;;;;;;12.63;5.60;;;36.70;32.80;36.30;101534;;;;587881;237;23078;-84
2022/04/29 07:07:33;;;;;;;12.75;5.22;;;36.80;32.50;36.30;101539;;;;587633;241;23071;-80
2022/04/29 07:10:02;;;;;;;15.73;5.25;;;36.80;32.50;36.40;101538;;;;586390;241;23055;-78
2022/04/29 07:12:33;;;;;;;9.35;5.37;;;36.80;32.10;36.40;101537;;;;586842;241;24084;-79
2022/04/29 07:15:02;;;;;;;9.60;5.63;;;36.80;32.30;36.70;101543;;;;581789;241;35224;-80
2022/04/29 07:17:30;;;;;;;5.93;4.70;;;37.10;32.00;36.50;101545;;;;586756;241;24084;-81
2022/04/29 07:19:59;;;;;;;8.80;5.50;;;36.90;31.80;36.40;101543;;;;586858;241;23159;-79
2022/04/29 07:22:29;;;;;;;9.25;4.75;;;36.90;32.10;36.70;101546;;;;586137;236;23082;-79
2022/04/29 07:25:00;;;;;;;5.75;5.20;;;37.00;32.10;36.70;101549;;;;586277;241;23059;-78
2022/04/29 07:27:25;;;;;;;6.75;4.90;;;37.00;32.30;37.20;101554;;;;585816;241;23106;-78
2022/04/29 07:29:54;;;;;;;7.22;4.90;;;37.40;31.90;37.40;101551;;;;586056;241;23074;-78
2022/04/29 07:32:27;;;;;;;7.37;5.32;;;37.70;31.40;37.90;101554;;;;586582;241;23062;-78
2022/04/29 07:43:15;;;;;;;20.08;4.15;;;39.20;30.20;39.20;101542;;;;588301;240;23106;-83
2022/04/29 07:45:46;;;;;;;5.93;2.65;;;39.50;30.00;39.40;101543;;;;597426;240;24100;-78
2022/04/29 07:48:14;;;;;;;7.15;3.22;;;39.80;29.30;39.20;101543;;;;587475;240;23150;-81
2022/04/29 07:50:46;;;;;;;4.20;2.58;;;39.70;29.40;39.40;101543;;;;587552;240;23066;-81
2022/04/29 07:53:15;;;;;;;9.30;2.90;;;39.90;29.30;39.80;101543;;;;587542;240;23144;-79
2022/04/29 07:55:42;;;;;;;5.55;2.35;;;40.20;29.40;40.50;101548;;;;586877;240;23121;-81
2022/04/29 07:58:09;;;;;;;7.85;2.62;;;40.70;28.90;40.90;101552;;;;587162;240;23122;-82
2022/04/29 08:00:37;;;;;;;8.80;2.53;;;41.20;28.60;40.90;101549;;;;586562;240;24154;-79
2022/04/29 08:03:04;;;;;;;6.72;2.60;;;41.40;28.10;40.40;101540;;;;587394;240;23071;-82
2022/04/29 08:05:32;;;;;;;5.12;2.33;;;41.10;28.30;40.80;101548;;;;587434;240;23055;-79
2022/04/29 08:08:00;;;;;;;3.50;2.55;;;41.80;28.10;41.40;101539;;;;596123;240;24161;-79
2022/04/29 08:10:32;;;;;;;6.07;2.90;;;42.10;28.10;41.60;101544;;;;586417;240;23088;-79
2022/04/29 08:13:00;;;;;;;8.02;2.80;;;42.00;28.00;42.20;101539;;;;586593;241;23191;-79
2022/04/29 08:15:29;;;;;;;6.35;2.78;;;43.00;27.70;42.60;101544;;;;596862;241;23083;-79
2022/04/29 08:17:57;;;;;;;5.05;2.60;;;42.90;27.60;42.10;101544;;;;586622;241;23051;-78
2022/04/29 08:20:25;;;;;;;4.80;2.47;;;42.90;27.30;42.30;101538;;;;586070;237;23111;-79
2022/04/29 08:22:52;;;;;;;6.18;2.92;;;42.90;27.30;42.40;101538;;;;586177;241;23095;-80
2022/04/29 08:25:20;;;;;;;3.78;3.15;;;43.00;27.50;42.60;101542;;;;586289;241;23079;-80
2022/04/29 08:27:51;;;;;;;5.25;2.60;;;43.10;26.70;42.70;101534;;;;586266;241;23070;-80
2022/04/29 08:30:16;;;;;;;3.15;2.85;;;43.30;26.70;42.40;101537;;;;586625;241;23178;-80
2022/04/29 08:32:44;;;;;;;5.30;2.90;;;43.30;26.60;41.70;101534;;;;586283;241;23064;-79
2022/04/29 08:35:12;;;;;;;4.70;3.95;;;42.90;26.90;40.40;101538;;;;586773;241;23065;-79
2022/04/29 08:37:43;;;;;;;5.53;3.75;;;42.00;27.30;39.10;101534;;;;586366;241;23097;-81
2022/04/29 08:40:11;;;;;;;6.95;3.55;;;40.90;28.00;39.20;101536;;;;586368;241;23070;-78
2022/04/29 08:42:42;;;;;;;7.85;3.58;;;40.50;28.20;39.60;101534;;;;586458;241;23051;-80
2022/04/29 08:45:10;;;;;;;3.72;3.20;;;40.60;28.30;39.30;101535;;;;585875;241;24126;-79
2022/04/29 08:47:37;;;;;;;8.18;3.42;;;40.50;27.90;38.20;101532;;;;585979;240;23061;-79
2022/04/29 08:50:12;;;;;;;8.45;3.35;;;39.80;28.00;36.60;101531;;;;587767;240;23085;-82
2022/04/29 08:52:36;;;;;;;10.32;3.10;;;38.40;29.00;37.50;101531;;;;588031;240;23136;-80
2022/04/29 09:00:41;;;;;;;6.30;3.53;;;39.30;28.70;36.00;101526;;;;587531;240;23107;-78
2022/04/29 09:03:07;;;;;;;4.32;3.10;;;37.70;29.30;35.70;101526;;;;586919;240;23081;-78
2022/04/29 09:05:35;;;;;;;4.70;2.95;;;36.90;29.80;36.90;101525;;;;595960;240;23118;-80
2022/04/29 09:08:04;;;;;;;2.95;2.60;;;37.30;29.80;38.50;101525;;;;586340;240;23063;-81
2022/04/29 09:10:38;;;;;;;6.75;2.95;;;38.70;29.30;39.90;101528;;;;595854;240;25162;-80
2022/04/29 09:13:17;;;;;;;4.75;3.37;;;40.10;28.80;40.90;101528;;;;586375;240;23075;-79
2022/04/29 09:15:48;;;;;;;6.00;3.12;;;41.60;28.00;40.80;101522;;;;586985;240;23055;-80
2022/04/29 09:18:38;;;;;;;10.15;3.87;;;41.00;27.60;38.70;101522;;;;586844;240;24088;-79
2022/04/29 09:21:08;;;;;;;8.30;3.47;;;41.00;27.50;36.10;101526;;;;587102;240;23067;-79
2022/04/29 09:23:40;;;;;;;8.60;2.78;;;38.80;28.10;32.80;101521;;;;587012;241;23090;-79
2022/04/29 09:26:05;;;;;;;9.60;3.70;;;35.70;29.50;30.50;101521;;;;586586;241;23146;-77
2022/04/29 09:28:33;;;;;;;8.85;3.12;;;33.10;31.40;28.60;101519;;;;586931;236;23082;-78
2022/04/29 09:31:00;;;;;;;5.10;2.95;;;30.70;33.50;26.80;101521;;;;586788;241;23059;-78
2022/04/29 09:33:32;;;;;;;7.10;3.03;;;26.90;37.80;25.60;101518;;;;586388;241;23094;-79
2022/04/29 09:35:59;;;;;;;5.30;2.97;;;26.80;37.80;24.40;101517;;;;586636;241;23071;-77
2022/04/29 09:41:10;;;;;;;7.83;2.40;;;24.30;41.20;22.40;101521;;;;586452;241;23067;-78
2022/04/29 09:43:38;;;;;;;5.83;2.30;;;23.20;42.80;22.20;101518;;;;586039;241;24049;-78
2022/04/29 09:46:21;;;;;;;4.90;3.03;;;22.90;43.60;21.90;101519;;;;586825;241;24087;-80
2022/04/29 09:49:02;;;;;;;7.33;3.03;;;22.50;44.70;21.30;101515;;;;586648;241;23077;-79
2022/04/29 09:51:47;;;;;;;5.33;2.20;;;22.00;45.80;20.40;101513;;;;586590;241;24109;-79
2022/04/29 09:54:24;;;;;;;3.53;1.67;;;21.20;46.50;19.50;101514;;;;586928;241;24072;-76
2022/04/29 09:57:16;;;;;;;6.43;1.87;;;20.40;48.10;18.80;101508;;;;586743;241;23165;-78
2022/04/29 09:59:46;;;;;;;4.70;2.13;;;19.60;48.90;19.00;101508;;;;587262;240;24118;-76
2022/04/29 10:02:17;;;;;;;5.57;2.70;;;19.60;50.00;20.70;101510;;;;587251;240;24081;-76
2022/04/29 10:04:45;;;;;;;5.97;3.60;;;20.80;50.20;23.80;101515;;;;586865;240;23106;-78
2022/04/29 10:07:13;;;;;;;6.40;3.40;;;23.80;45.70;25.40;101521;;;;586844;240;24050;-77
2022/04/29 10:09:41;;;;;;;4.70;3.20;;;26.00;41.70;24.90;101521;;;;585939;240;24062;-78
2022/04/29 10:12:13;;;;;;;19.27;4.20;;;26.30;40.30;23.70;101524;;;;586651;240;23100;-77
2022/04/29 10:14:42;;;;;;;7.10;3.70;;;25.40;40.70;23.40;101520;;;;586484;240;23125;-77
2022/04/29 10:23:03;;;;;;;9.70;5.20;;;24.70;44.00;22.50;101530;;;;586252;240;24106;-78
2022/04/29 10:25:31;;;;;;;42.43;6.40;;;23.80;45.60;22.30;101527;;;;586015;240;24050;-78
2022/04/29 10:28:00;;;;;;;7.90;5.80;;;23.30;47.50;22.60;101529;;;;586382;240;24065;-78
2022/04/29 10:30:33;;;;;;;13.57;5.90;;;23.50;47.50;22.10;101529;;;;586484;240;24053;-79
2022/04/29 10:33:07;;;;;;;13.07;6.20;;;23.20;47.90;21.50;101528;;;;586192;240;24083;-79
2022/04/29 10:36:01;;;;;;;11.47;6.90;;;22.60;49.20;20.70;101536;;;;586620;241;24055;-80
2022/04/29 10:38:41;;;;;;;11.07;6.00;;;20.90;52.60;19.80;101537;;;;583161;241;24103;-77
2022/04/29 10:41:17;;;;;;;10.00;6.50;;;20.90;52.60;18.80;101531;;;;585920;241;24118;-78
2022/04/29 10:43:51;;;;;;;13.10;7.10;;;19.90;54.50;18.10;101536;;;;585544;241;24057;-79
2022/04/29 10:46:22;;;;;;;13.30;5.97;;;19.10;56.40;17.70;101528;;;;585419;241;24068;-84
2022/04/29 10:48:56;;;;;;;8.77;5.70;;;18.60;58.20;17.50;101547;;;;586014;241;25124;-83
2022/04/29 10:51:26;;;;;;;11.90;5.30;;;18.20;59.80;17.20;101541;;;;586563;241;24097;-81
2022/04/29 10:53:55;;;;;;;9.60;6.03;;;17.90;60.20;16.90;101539;;;;586224;241;24040;-82
2022/04/29 10:56:31;;;;;;;9.60;5.70;;;17.60;60.70;16.50;101530;;;;586095;241;24115;-80
2022/04/29 10:58:59;;;;;;;9.63;6.00;;;17.30;61.70;16.20;101536;;;;586216;241;24063;-81
2022/04/29 11:01:34;;;;;;;9.93;6.20;;;16.90;63.10;15.90;101538;;;;585083;241;24081;-81
2022/04/29 11:03:58;;;;;;;14.67;6.60;;;16.60;64.70;15.50;101543;;;;596235;241;24187;-85
2022/04/29 11:06:42;;;;;;;10.93;6.47;;;16.20;66.10;15.20;101536;;;;585951;241;24099;-81
2022/04/29 11:09:24;;;;;;;17.10;6.53;;;16.00;68.10;15.00;101536;;;;594176;241;24061;-82
2022/04/29 11:11:52;;;;;;;10.57;6.93;;;15.70;69.90;14.70;101543;;;;586721;240;24122;-83
2022/04/29 11:14:20;;;;;;;9.73;6.00;;;15.40;71.10;14.60;101543;;;;587568;240;24072;-81
2022/04/29 11:16:52;;;;;;;10.23;6.00;;;15.20;72.30;14.30;101550;;;;586578;240;24131;-82
2022/04/29 11:19:28;;;;;;;13.43;5.90;;;15.10;73.50;14.10;101544;;;;586886;240;24113;-83
2022/04/29 11:24:47;;;;;;;10.63;6.17;;;14.70;76.70;13.90;101545;;;;587128;240;24111;-83
2022/04/29 11:27:27;;;;;;;8.73;5.50;;;14.60;78.40;13.80;101539;;;;586635;240;24124;-80
2022/04/29 11:29:56;;;;;;;9.40;6.23;;;14.50;79.40;13.70;101542;;;;586471;240;25118;-81
2022/04/29 11:32:29;;;;;;;9.33;5.37;;;14.40;81.20;13.90;101542;;;;586251;240;24127;-84
2022/04/29 11:34:56;;;;;;;10.30;5.47;;;14.50;80.90;14.00;101540;;;;586139;240;24076;-83
2022/04/29 11:37:24;;;;;;;9.40;5.53;;;14.60;81.60;14.00;101540;;;;586426;240;24069;-82
2022/04/29 11:39:55;;;;;;;8.10;5.00;;;14.70;81.10;13.90;101526;;;;586586;240;24098;-78
2022/04/29 11:42:20;;;;;;;9.83;4.70;;;14.60;81.10;13.90;101531;;;;585578;240;24054;-79
2022/04/29 11:44:51;;;;;;;5.23;4.27;;;14.60;81.10;13.90;101538;;;;586368;240;24110;-85
2022/04/29 11:47:25;;;;;;;11.80;4.00;;;14.60;80.90;14.00;101538;;;;585465;241;24124;-76
2022/04/29 11:49:55;;;;;;;7.60;4.60;;;14.60;79.60;13.90;101534;;;;585533;241;24120;-77
2022/04/29 11:52:20;;;;;;;6.63;4.00;;;14.60;81.20;14.10;101534;;;;586215;241;24058;-77
2022/04/29 11:54:55;;;;;;;7.90;5.00;;;14.80;82.60;14.10;101524;;;;586472;241;24075;-76
2022/04/29 11:57:26;;;;;;;5.80;3.73;;;14.80;82.60;14.20;101521;;;;586430;241;24059;-77